sensor_id;sensor_type;location;lat;lon;timestamp;pressure;altitude;pressure_sealevel;temperature;humidity
47967;BME280;33733;52.456;13.620;2024-03-29T00:01:24;99560.59;;;9.29;61.13
47967;BME280;33733;52.456;13.620;2024-03-29T00:03:51;99561.09;;;9.23;60.93
47967;BME280;33733;52.456;13.620;2024-03-29T00:06:19;99561.03;;;9.34;60.50
47967;BME280;33733;52.456;13.620;2024-03-29T00:08:45;99567.09;;;9.46;60.12
47967;BME280;33733;52.456;13.620;2024-03-29T00:11:12;99568.81;;;9.57;59.81
47967;BME280;33733;52.456;13.620;2024-03-29T00:13:39;99573.31;;;9.66;59.42
47967;BME280;33733;52.456;13.620;2024-03-29T00:16:06;99569.06;;;9.54;59.25
47967;BME280;33733;52.456;13.620;2024-03-29T00:18:32;99571.94;;;9.71;59.03
47967;BME280;33733;52.456;13.620;2024-03-29T00:20:58;99571.88;;;9.82;58.54
47967;BME280;33733;52.456;13.620;2024-03-29T00:23:24;99564.22;;;9.79;58.13
47967;BME280;33733;52.456;13.620;2024-03-29T00:25:51;99578.41;;;9.88;57.72
47967;BME280;33733;52.456;13.620;2024-03-29T00:28:17;99568.97;;;9.85;57.03
47967;BME280;33733;52.456;13.620;2024-03-29T00:30:44;99572.56;;;10.05;56.74
47967;BME280;33733;52.456;13.620;2024-03-29T00:33:10;99574.06;;;10.28;55.95
47967;BME280;33733;52.456;13.620;2024-03-29T00:35:37;99580.84;;;10.21;55.94
47967;BME280;33733;52.456;13.620;2024-03-29T00:38:03;99584.25;;;9.91;57.36
47967;BME280;33733;52.456;13.620;2024-03-29T00:40:29;99597.94;;;9.65;58.71
47967;BME280;33733;52.456;13.620;2024-03-29T00:42:56;99607.97;;;9.50;60.76
47967;BME280;33733;52.456;13.620;2024-03-29T00:45:22;99621.28;;;9.06;63.65
47967;BME280;33733;52.456;13.620;2024-03-29T00:47:48;99618.94;;;8.91;64.91
47967;BME280;33733;52.456;13.620;2024-03-29T00:50:14;99626.38;;;8.86;65.50
47967;BME280;33733;52.456;13.620;2024-03-29T00:52:41;99620.28;;;8.75;66.08
47967;BME280;33733;52.456;13.620;2024-03-29T00:55:07;99615.06;;;8.64;67.13
47967;BME280;33733;52.456;13.620;2024-03-29T00:57:34;99611.34;;;8.66;66.83
47967;BME280;33733;52.456;13.620;2024-03-29T01:00:00;99621.63;;;8.47;67.21
47967;BME280;33733;52.456;13.620;2024-03-29T01:02:26;99613.16;;;8.43;68.04
47967;BME280;33733;52.456;13.620;2024-03-29T01:04:53;99610.16;;;8.37;68.14
47967;BME280;33733;52.456;13.620;2024-03-29T01:07:19;99606.00;;;8.34;68.68
47967;BME280;33733;52.456;13.620;2024-03-29T01:09:45;99596.09;;;8.38;69.36
47967;BME280;33733;52.456;13.620;2024-03-29T01:12:11;99606.22;;;8.54;68.43
47967;BME280;33733;52.456;13.620;2024-03-29T01:14:37;99615.44;;;8.59;68.44
47967;BME280;33733;52.456;13.620;2024-03-29T01:17:04;99609.41;;;8.68;68.15
47967;BME280;33733;52.456;13.620;2024-03-29T01:19:30;99605.97;;;8.68;68.41
47967;BME280;33733;52.456;13.620;2024-03-29T01:21:56;99603.72;;;8.41;69.32
47967;BME280;33733;52.456;13.620;2024-03-29T01:24:22;99613.00;;;8.56;68.44
47967;BME280;33733;52.456;13.620;2024-03-29T01:26:49;99619.81;;;8.70;68.65
47967;BME280;33733;52.456;13.620;2024-03-29T01:29:15;99619.31;;;8.76;67.56
47967;BME280;33733;52.456;13.620;2024-03-29T01:31:42;99614.72;;;8.46;68.62
47967;BME280;33733;52.456;13.620;2024-03-29T01:34:08;99620.09;;;8.33;68.66
47967;BME280;33733;52.456;13.620;2024-03-29T01:36:35;99620.19;;;8.54;67.87
47967;BME280;33733;52.456;13.620;2024-03-29T01:39:01;99614.00;;;8.55;67.79
47967;BME280;33733;52.456;13.620;2024-03-29T01:41:27;99624.00;;;8.61;67.45
47967;BME280;33733;52.456;13.620;2024-03-29T01:43:54;99616.38;;;8.47;67.79
47967;BME280;33733;52.456;13.620;2024-03-29T01:46:22;99618.50;;;8.75;67.05
47967;BME280;33733;52.456;13.620;2024-03-29T01:48:51;99618.63;;;8.40;67.75
47967;BME280;33733;52.456;13.620;2024-03-29T01:51:18;99623.13;;;8.16;68.83
47967;BME280;33733;52.456;13.620;2024-03-29T01:53:47;99620.50;;;8.05;68.71
47967;BME280;33733;52.456;13.620;2024-03-29T01:56:14;99626.59;;;8.17;68.81
47967;BME280;33733;52.456;13.620;2024-03-29T01:58:43;99612.88;;;8.13;68.41
47967;BME280;33733;52.456;13.620;2024-03-29T02:01:11;99612.88;;;8.24;68.43
47967;BME280;33733;52.456;13.620;2024-03-29T02:03:37;99611.56;;;8.19;68.23
47967;BME280;33733;52.456;13.620;2024-03-29T02:06:05;99620.66;;;8.15;68.58
47967;BME280;33733;52.456;13.620;2024-03-29T02:08:33;99620.75;;;8.13;68.10
47967;BME280;33733;52.456;13.620;2024-03-29T02:11:00;99623.38;;;8.24;68.03
47967;BME280;33733;52.456;13.620;2024-03-29T02:13:26;99623.13;;;8.05;67.41
47967;BME280;33733;52.456;13.620;2024-03-29T02:15:53;99634.22;;;8.09;67.92
47967;BME280;33733;52.456;13.620;2024-03-29T02:18:19;99631.25;;;8.02;67.63
47967;BME280;33733;52.456;13.620;2024-03-29T02:20:45;99632.00;;;8.15;67.22
47967;BME280;33733;52.456;13.620;2024-03-29T02:23:15;99626.59;;;8.06;67.29
47967;BME280;33733;52.456;13.620;2024-03-29T02:25:42;99630.75;;;7.97;67.34
47967;BME280;33733;52.456;13.620;2024-03-29T02:28:09;99636.75;;;8.21;66.68
47967;BME280;33733;52.456;13.620;2024-03-29T02:30:35;99639.53;;;8.20;65.65
47967;BME280;33733;52.456;13.620;2024-03-29T02:33:01;99639.28;;;8.12;66.60
47967;BME280;33733;52.456;13.620;2024-03-29T02:35:28;99639.63;;;8.07;66.15
47967;BME280;33733;52.456;13.620;2024-03-29T02:37:55;99652.75;;;7.96;66.55
47967;BME280;33733;52.456;13.620;2024-03-29T02:40:21;99649.63;;;7.91;67.46
47967;BME280;33733;52.456;13.620;2024-03-29T02:42:48;99647.34;;;7.97;66.56
47967;BME280;33733;52.456;13.620;2024-03-29T02:45:15;99644.63;;;7.99;66.61
47967;BME280;33733;52.456;13.620;2024-03-29T02:47:42;99657.84;;;7.86;66.62
47967;BME280;33733;52.456;13.620;2024-03-29T02:50:09;99659.88;;;7.94;66.54
47967;BME280;33733;52.456;13.620;2024-03-29T02:52:36;99655.47;;;7.94;67.21
47967;BME280;33733;52.456;13.620;2024-03-29T02:55:03;99666.06;;;7.93;66.56
47967;BME280;33733;52.456;13.620;2024-03-29T02:57:29;99651.56;;;7.65;66.99
47967;BME280;33733;52.456;13.620;2024-03-29T02:59:55;99652.53;;;7.64;67.13
47967;BME280;33733;52.456;13.620;2024-03-29T03:02:21;99649.00;;;7.52;67.12
47967;BME280;33733;52.456;13.620;2024-03-29T03:04:47;99646.03;;;7.57;67.24
47967;BME280;33733;52.456;13.620;2024-03-29T03:07:14;99651.44;;;7.55;66.81
47967;BME280;33733;52.456;13.620;2024-03-29T03:09:58;99653.06;;;7.56;66.88
47967;BME280;33733;52.456;13.620;2024-03-29T03:12:43;99666.56;;;7.52;67.05
47967;BME280;33733;52.456;13.620;2024-03-29T03:15:09;99675.38;;;7.51;66.73
47967;BME280;33733;52.456;13.620;2024-03-29T03:17:36;99683.47;;;7.48;66.44
47967;BME280;33733;52.456;13.620;2024-03-29T03:20:02;99680.84;;;7.48;66.60
47967;BME280;33733;52.456;13.620;2024-03-29T03:22:31;99681.13;;;7.56;66.20
47967;BME280;33733;52.456;13.620;2024-03-29T03:24:57;99680.22;;;7.44;67.06
47967;BME280;33733;52.456;13.620;2024-03-29T03:27:23;99679.78;;;7.27;67.07
47967;BME280;33733;52.456;13.620;2024-03-29T03:29:49;99680.66;;;7.15;67.01
47967;BME280;33733;52.456;13.620;2024-03-29T03:32:15;99676.38;;;7.14;68.11
47967;BME280;33733;52.456;13.620;2024-03-29T03:34:42;99687.44;;;7.30;66.63
47967;BME280;33733;52.456;13.620;2024-03-29T03:37:08;99689.16;;;7.18;66.68
47967;BME280;33733;52.456;13.620;2024-03-29T03:39:34;99685.41;;;7.09;67.00
47967;BME280;33733;52.456;13.620;2024-03-29T03:42:01;99703.25;;;7.04;66.98
47967;BME280;33733;52.456;13.620;2024-03-29T03:44:27;99702.44;;;7.04;67.21
47967;BME280;33733;52.456;13.620;2024-03-29T03:46:55;99696.78;;;7.21;66.19
47967;BME280;33733;52.456;13.620;2024-03-29T03:49:21;99702.78;;;7.23;66.94
47967;BME280;33733;52.456;13.620;2024-03-29T03:51:47;99694.88;;;7.36;66.31
47967;BME280;33733;52.456;13.620;2024-03-29T03:54:14;99700.25;;;7.22;65.64
47967;BME280;33733;52.456;13.620;2024-03-29T03:56:40;99704.78;;;7.20;65.94
47967;BME280;33733;52.456;13.620;2024-03-29T03:59:06;99684.66;;;7.20;65.62
47967;BME280;33733;52.456;13.620;2024-03-29T04:01:34;99686.88;;;7.37;65.05
47967;BME280;33733;52.456;13.620;2024-03-29T04:04:00;99671.41;;;7.22;64.88
47967;BME280;33733;52.456;13.620;2024-03-29T04:06:27;99673.53;;;7.40;64.63
47967;BME280;33733;52.456;13.620;2024-03-29T04:08:53;99673.53;;;7.40;64.37
47967;BME280;33733;52.456;13.620;2024-03-29T04:11:19;99671.53;;;7.44;64.70
47967;BME280;33733;52.456;13.620;2024-03-29T04:13:46;99657.69;;;7.77;64.28
47967;BME280;33733;52.456;13.620;2024-03-29T04:16:12;99668.72;;;7.58;63.30
47967;BME280;33733;52.456;13.620;2024-03-29T04:18:38;99670.53;;;7.69;63.00
47967;BME280;33733;52.456;13.620;2024-03-29T04:21:04;99667.09;;;7.68;63.26
47967;BME280;33733;52.456;13.620;2024-03-29T04:23:31;99677.97;;;7.75;62.98
47967;BME280;33733;52.456;13.620;2024-03-29T04:25:58;99686.78;;;7.74;62.42
47967;BME280;33733;52.456;13.620;2024-03-29T04:28:25;99675.38;;;7.86;62.29
47967;BME280;33733;52.456;13.620;2024-03-29T04:30:52;99688.72;;;7.83;62.12
47967;BME280;33733;52.456;13.620;2024-03-29T04:33:19;99682.22;;;7.99;62.39
47967;BME280;33733;52.456;13.620;2024-03-29T04:35:56;99685.78;;;7.98;62.34
47967;BME280;33733;52.456;13.620;2024-03-29T04:38:23;99679.34;;;8.02;61.84
47967;BME280;33733;52.456;13.620;2024-03-29T04:40:54;99667.88;;;7.57;63.23
47967;BME280;33733;52.456;13.620;2024-03-29T04:43:28;99667.44;;;7.64;63.88
47967;BME280;33733;52.456;13.620;2024-03-29T04:46:13;99675.84;;;7.80;63.63
47967;BME280;33733;52.456;13.620;2024-03-29T04:48:41;99679.44;;;7.90;63.84
47967;BME280;33733;52.456;13.620;2024-03-29T04:51:09;99672.84;;;7.84;64.07
47967;BME280;33733;52.456;13.620;2024-03-29T04:53:36;99676.72;;;8.02;63.18
47967;BME280;33733;52.456;13.620;2024-03-29T04:56:03;99667.81;;;7.70;64.48
47967;BME280;33733;52.456;13.620;2024-03-29T04:58:30;99664.34;;;7.70;63.88
47967;BME280;33733;52.456;13.620;2024-03-29T05:00:56;99671.28;;;7.71;64.14
47967;BME280;33733;52.456;13.620;2024-03-29T05:03:23;99673.72;;;7.61;64.68
47967;BME280;33733;52.456;13.620;2024-03-29T05:05:50;99671.78;;;7.76;64.34
47967;BME280;33733;52.456;13.620;2024-03-29T05:08:19;99665.50;;;7.31;65.87
47967;BME280;33733;52.456;13.620;2024-03-29T05:10:48;99664.09;;;7.14;66.26
47967;BME280;33733;52.456;13.620;2024-03-29T05:13:14;99676.69;;;7.33;65.84
47967;BME280;33733;52.456;13.620;2024-03-29T05:15:40;99693.09;;;7.36;65.74
47967;BME280;33733;52.456;13.620;2024-03-29T05:18:06;99688.81;;;7.23;65.87
47967;BME280;33733;52.456;13.620;2024-03-29T05:20:33;99689.81;;;7.33;65.92
47967;BME280;33733;52.456;13.620;2024-03-29T05:23:00;99679.72;;;7.63;65.48
47967;BME280;33733;52.456;13.620;2024-03-29T05:25:26;99671.47;;;7.33;65.01
47967;BME280;33733;52.456;13.620;2024-03-29T05:27:53;99666.72;;;7.14;65.78
47967;BME280;33733;52.456;13.620;2024-03-29T05:30:20;99677.53;;;7.33;65.74
47967;BME280;33733;52.456;13.620;2024-03-29T05:32:46;99693.13;;;7.47;65.62
47967;BME280;33733;52.456;13.620;2024-03-29T05:35:13;99706.63;;;7.54;65.11
47967;BME280;33733;52.456;13.620;2024-03-29T05:37:39;99691.59;;;7.80;64.45
47967;BME280;33733;52.456;13.620;2024-03-29T05:40:07;99692.25;;;7.71;64.51
47967;BME280;33733;52.456;13.620;2024-03-29T05:42:33;99697.47;;;7.60;64.54
47967;BME280;33733;52.456;13.620;2024-03-29T05:45:04;99697.19;;;7.75;63.74
47967;BME280;33733;52.456;13.620;2024-03-29T05:47:31;99686.88;;;7.96;63.43
47967;BME280;33733;52.456;13.620;2024-03-29T05:49:58;99686.47;;;7.89;63.47
47967;BME280;33733;52.456;13.620;2024-03-29T05:52:24;99677.44;;;7.59;64.38
47967;BME280;33733;52.456;13.620;2024-03-29T05:54:50;99691.63;;;7.56;64.39
47967;BME280;33733;52.456;13.620;2024-03-29T05:57:16;99685.41;;;7.57;63.90
47967;BME280;33733;52.456;13.620;2024-03-29T05:59:42;99689.41;;;7.74;63.22
47967;BME280;33733;52.456;13.620;2024-03-29T06:02:09;99690.53;;;7.59;63.66
47967;BME280;33733;52.456;13.620;2024-03-29T06:04:35;99702.66;;;7.72;63.07
47967;BME280;33733;52.456;13.620;2024-03-29T06:07:03;99708.78;;;7.84;63.00
47967;BME280;33733;52.456;13.620;2024-03-29T06:09:30;99712.88;;;7.64;63.46
47967;BME280;33733;52.456;13.620;2024-03-29T06:11:57;99702.66;;;7.72;62.71
47967;BME280;33733;52.456;13.620;2024-03-29T06:14:23;99707.78;;;7.50;63.80
47967;BME280;33733;52.456;13.620;2024-03-29T06:17:08;99711.00;;;7.77;62.89
47967;BME280;33733;52.456;13.620;2024-03-29T06:19:54;99723.28;;;7.77;62.67
47967;BME280;33733;52.456;13.620;2024-03-29T06:22:23;99722.69;;;7.73;62.58
47967;BME280;33733;52.456;13.620;2024-03-29T06:24:50;99723.53;;;7.74;62.73
47967;BME280;33733;52.456;13.620;2024-03-29T06:27:20;99728.34;;;7.56;62.99
47967;BME280;33733;52.456;13.620;2024-03-29T06:29:49;99723.56;;;7.85;62.90
47967;BME280;33733;52.456;13.620;2024-03-29T06:32:16;99719.09;;;8.09;62.75
47967;BME280;33733;52.456;13.620;2024-03-29T06:34:44;99738.19;;;8.00;61.85
47967;BME280;33733;52.456;13.620;2024-03-29T06:37:11;99740.72;;;8.13;62.10
47967;BME280;33733;52.456;13.620;2024-03-29T06:39:37;99740.25;;;8.19;61.96
47967;BME280;33733;52.456;13.620;2024-03-29T06:42:04;99745.81;;;8.38;60.68
47967;BME280;33733;52.456;13.620;2024-03-29T06:44:33;99736.44;;;8.23;61.34
47967;BME280;33733;52.456;13.620;2024-03-29T06:47:00;99735.66;;;8.44;61.38
47967;BME280;33733;52.456;13.620;2024-03-29T06:49:26;99740.97;;;8.78;60.16
47967;BME280;33733;52.456;13.620;2024-03-29T06:51:52;99738.69;;;8.51;59.97
47967;BME280;33733;52.456;13.620;2024-03-29T06:54:19;99747.31;;;8.75;60.53
47967;BME280;33733;52.456;13.620;2024-03-29T06:56:48;99758.91;;;8.95;59.05
47967;BME280;33733;52.456;13.620;2024-03-29T06:59:15;99765.09;;;8.94;58.92
47967;BME280;33733;52.456;13.620;2024-03-29T07:01:41;99766.16;;;9.14;58.44
47967;BME280;33733;52.456;13.620;2024-03-29T07:04:08;99773.22;;;9.02;58.76
47967;BME280;33733;52.456;13.620;2024-03-29T07:06:34;99775.63;;;9.27;57.64
47967;BME280;33733;52.456;13.620;2024-03-29T07:09:00;99781.34;;;9.21;57.43
47967;BME280;33733;52.456;13.620;2024-03-29T07:11:26;99771.41;;;9.25;57.74
47967;BME280;33733;52.456;13.620;2024-03-29T07:13:52;99763.31;;;9.60;56.24
47967;BME280;33733;52.456;13.620;2024-03-29T07:16:19;99755.63;;;9.68;56.19
47967;BME280;33733;52.456;13.620;2024-03-29T07:18:45;99754.28;;;9.41;55.88
47967;BME280;33733;52.456;13.620;2024-03-29T07:21:11;99760.94;;;9.57;56.16
47967;BME280;33733;52.456;13.620;2024-03-29T07:23:37;99773.41;;;9.55;56.03
47967;BME280;33733;52.456;13.620;2024-03-29T07:26:05;99779.41;;;9.46;56.30
47967;BME280;33733;52.456;13.620;2024-03-29T07:28:32;99792.69;;;9.33;55.56
47967;BME280;33733;52.456;13.620;2024-03-29T07:31:05;99808.00;;;9.39;55.99
47967;BME280;33733;52.456;13.620;2024-03-29T07:33:33;99815.28;;;9.47;55.52
47967;BME280;33733;52.456;13.620;2024-03-29T07:35:59;99810.03;;;9.47;55.20
47967;BME280;33733;52.456;13.620;2024-03-29T07:38:26;99797.47;;;9.50;55.10
47967;BME280;33733;52.456;13.620;2024-03-29T07:40:52;99805.69;;;9.57;55.99
47967;BME280;33733;52.456;13.620;2024-03-29T07:43:18;99796.38;;;9.53;55.12
47967;BME280;33733;52.456;13.620;2024-03-29T07:45:45;99800.53;;;9.66;55.06
47967;BME280;33733;52.456;13.620;2024-03-29T07:48:13;99809.81;;;9.81;54.04
47967;BME280;33733;52.456;13.620;2024-03-29T07:50:40;99808.03;;;9.82;53.83
47967;BME280;33733;52.456;13.620;2024-03-29T07:53:07;99800.47;;;9.88;54.16
47967;BME280;33733;52.456;13.620;2024-03-29T07:55:40;99809.25;;;9.78;54.27
47967;BME280;33733;52.456;13.620;2024-03-29T07:58:09;99805.13;;;9.85;54.92
47967;BME280;33733;52.456;13.620;2024-03-29T08:00:39;99814.56;;;9.87;54.23
47967;BME280;33733;52.456;13.620;2024-03-29T08:03:07;99808.41;;;9.77;53.90
47967;BME280;33733;52.456;13.620;2024-03-29T08:05:33;99825.88;;;9.78;54.55
47967;BME280;33733;52.456;13.620;2024-03-29T08:08:00;99832.31;;;9.85;54.39
47967;BME280;33733;52.456;13.620;2024-03-29T08:10:26;99826.56;;;9.80;54.09
47967;BME280;33733;52.456;13.620;2024-03-29T08:12:53;99835.41;;;9.90;54.61
47967;BME280;33733;52.456;13.620;2024-03-29T08:15:19;99845.81;;;9.92;54.51
47967;BME280;33733;52.456;13.620;2024-03-29T08:17:46;99850.34;;;10.01;54.30
47967;BME280;33733;52.456;13.620;2024-03-29T08:20:13;99853.56;;;10.05;54.27
47967;BME280;33733;52.456;13.620;2024-03-29T08:22:39;99841.56;;;10.12;54.46
47967;BME280;33733;52.456;13.620;2024-03-29T08:25:05;99843.75;;;10.18;54.33
47967;BME280;33733;52.456;13.620;2024-03-29T08:27:32;99831.66;;;10.36;54.10
47967;BME280;33733;52.456;13.620;2024-03-29T08:29:58;99831.81;;;10.55;54.17
47967;BME280;33733;52.456;13.620;2024-03-29T08:32:24;99828.66;;;10.61;53.91
47967;BME280;33733;52.456;13.620;2024-03-29T08:34:51;99834.06;;;10.80;53.70
47967;BME280;33733;52.456;13.620;2024-03-29T08:37:18;99815.31;;;10.83;53.35
47967;BME280;33733;52.456;13.620;2024-03-29T08:39:44;99813.63;;;10.73;53.90
47967;BME280;33733;52.456;13.620;2024-03-29T08:42:11;99776.03;;;11.11;52.96
47967;BME280;33733;52.456;13.620;2024-03-29T08:44:38;99788.81;;;11.15;54.06
47967;BME280;33733;52.456;13.620;2024-03-29T08:47:05;99774.31;;;11.30;53.28
47967;BME280;33733;52.456;13.620;2024-03-29T08:49:31;99759.63;;;11.07;53.40
47967;BME280;33733;52.456;13.620;2024-03-29T08:51:58;99771.72;;;11.10;53.51
47967;BME280;33733;52.456;13.620;2024-03-29T08:54:26;99796.00;;;11.04;53.26
47967;BME280;33733;52.456;13.620;2024-03-29T08:56:54;99810.47;;;11.09;53.60
47967;BME280;33733;52.456;13.620;2024-03-29T08:59:20;99815.19;;;11.15;53.45
47967;BME280;33733;52.456;13.620;2024-03-29T09:01:46;99819.91;;;11.12;53.05
47967;BME280;33733;52.456;13.620;2024-03-29T09:04:15;99809.41;;;11.21;52.82
47967;BME280;33733;52.456;13.620;2024-03-29T09:06:42;99812.56;;;11.15;53.21
47967;BME280;33733;52.456;13.620;2024-03-29T09:09:08;99819.97;;;11.21;53.60
47967;BME280;33733;52.456;13.620;2024-03-29T09:11:36;99818.28;;;11.20;53.30
47967;BME280;33733;52.456;13.620;2024-03-29T09:14:02;99832.41;;;11.10;54.29
47967;BME280;33733;52.456;13.620;2024-03-29T09:16:30;99828.66;;;11.12;53.47
47967;BME280;33733;52.456;13.620;2024-03-29T09:18:57;99824.97;;;11.24;53.79
47967;BME280;33733;52.456;13.620;2024-03-29T09:21:23;99833.34;;;11.29;53.04
47967;BME280;33733;52.456;13.620;2024-03-29T09:23:49;99836.81;;;11.30;52.86
47967;BME280;33733;52.456;13.620;2024-03-29T09:26:19;99828.81;;;11.51;52.58
47967;BME280;33733;52.456;13.620;2024-03-29T09:28:45;99814.97;;;11.58;52.41
47967;BME280;33733;52.456;13.620;2024-03-29T09:31:11;99815.16;;;11.76;52.15
47967;BME280;33733;52.456;13.620;2024-03-29T09:33:38;99816.25;;;11.83;51.51
47967;BME280;33733;52.456;13.620;2024-03-29T09:36:04;99811.97;;;11.82;51.46
47967;BME280;33733;52.456;13.620;2024-03-29T09:38:30;99834.91;;;11.91;51.38
47967;BME280;33733;52.456;13.620;2024-03-29T09:41:11;99830.19;;;11.95;50.53
47967;BME280;33733;52.456;13.620;2024-03-29T09:43:41;99831.47;;;12.10;50.39
47967;BME280;33733;52.456;13.620;2024-03-29T09:46:08;99832.03;;;12.13;48.44
47967;BME280;33733;52.456;13.620;2024-03-29T09:48:37;99836.88;;;12.28;48.46
47967;BME280;33733;52.456;13.620;2024-03-29T09:51:07;99826.03;;;12.11;48.55
47967;BME280;33733;52.456;13.620;2024-03-29T09:53:34;99834.94;;;12.20;47.54
47967;BME280;33733;52.456;13.620;2024-03-29T09:56:06;99847.47;;;12.18;48.50
47967;BME280;33733;52.456;13.620;2024-03-29T09:58:36;99844.00;;;12.37;48.16
47967;BME280;33733;52.456;13.620;2024-03-29T10:01:05;99848.03;;;12.31;47.15
47967;BME280;33733;52.456;13.620;2024-03-29T10:03:36;99836.88;;;12.28;47.55
47967;BME280;33733;52.456;13.620;2024-03-29T10:06:05;99832.16;;;12.31;46.73
47967;BME280;33733;52.456;13.620;2024-03-29T10:08:32;99830.94;;;12.26;47.13
47967;BME280;33733;52.456;13.620;2024-03-29T10:10:58;99818.81;;;12.13;47.89
47967;BME280;33733;52.456;13.620;2024-03-29T10:13:25;99816.59;;;12.38;47.89
47967;BME280;33733;52.456;13.620;2024-03-29T10:15:52;99821.59;;;12.31;47.93
47967;BME280;33733;52.456;13.620;2024-03-29T10:18:26;99812.41;;;12.45;47.88
47967;BME280;33733;52.456;13.620;2024-03-29T10:23:27;99828.13;;;12.37;47.68
47967;BME280;33733;52.456;13.620;2024-03-29T10:25:54;99822.84;;;12.37;48.53
47967;BME280;33733;52.456;13.620;2024-03-29T10:28:20;99819.34;;;12.27;48.32
47967;BME280;33733;52.456;13.620;2024-03-29T10:30:48;99824.50;;;12.28;49.29
47967;BME280;33733;52.456;13.620;2024-03-29T10:33:15;99811.84;;;12.03;50.98
47967;BME280;33733;52.456;13.620;2024-03-29T10:35:45;99815.59;;;12.00;52.07
47967;BME280;33733;52.456;13.620;2024-03-29T10:38:12;99812.38;;;11.87;53.29
47967;BME280;33733;52.456;13.620;2024-03-29T10:40:39;99804.91;;;12.02;52.91
47967;BME280;33733;52.456;13.620;2024-03-29T10:43:09;99784.16;;;11.88;53.11
47967;BME280;33733;52.456;13.620;2024-03-29T10:45:38;99780.81;;;11.95;53.80
47967;BME280;33733;52.456;13.620;2024-03-29T10:48:06;99786.53;;;12.00;54.88
47967;BME280;33733;52.456;13.620;2024-03-29T10:50:36;99780.25;;;11.92;54.25
47967;BME280;33733;52.456;13.620;2024-03-29T10:53:03;99786.53;;;12.00;54.60
47967;BME280;33733;52.456;13.620;2024-03-29T10:55:29;99777.91;;;12.08;54.62
47967;BME280;33733;52.456;13.620;2024-03-29T10:57:57;99784.31;;;11.96;55.70
47967;BME280;33733;52.456;13.620;2024-03-29T11:00:24;99781.22;;;11.91;56.71
47967;BME280;33733;52.456;13.620;2024-03-29T11:03:05;99771.22;;;12.33;56.40
47967;BME280;33733;52.456;13.620;2024-03-29T11:05:35;99759.50;;;12.35;55.12
47967;BME280;33733;52.456;13.620;2024-03-29T11:08:04;99740.44;;;12.88;53.94
47967;BME280;33733;52.456;13.620;2024-03-29T11:10:41;99738.03;;;13.31;53.38
47967;BME280;33733;52.456;13.620;2024-03-29T11:13:34;99716.00;;;13.76;51.28
47967;BME280;33733;52.456;13.620;2024-03-29T11:16:04;99691.47;;;14.35;49.51
47967;BME280;33733;52.456;13.620;2024-03-29T11:18:31;99708.25;;;14.00;49.73
47967;BME280;33733;52.456;13.620;2024-03-29T11:20:58;99724.28;;;14.16;49.21
47967;BME280;33733;52.456;13.620;2024-03-29T11:23:27;99703.94;;;13.99;49.41
47967;BME280;33733;52.456;13.620;2024-03-29T11:25:54;99705.81;;;14.06;49.07
47967;BME280;33733;52.456;13.620;2024-03-29T11:28:34;99695.50;;;14.21;48.57
47967;BME280;33733;52.456;13.620;2024-03-29T11:31:06;99690.78;;;13.89;48.61
47967;BME280;33733;52.456;13.620;2024-03-29T11:36:13;99681.69;;;13.74;49.26
47967;BME280;33733;52.456;13.620;2024-03-29T11:38:40;99677.75;;;13.43;50.17
47967;BME280;33733;52.456;13.620;2024-03-29T11:41:11;99692.03;;;13.32;50.75
47967;BME280;33733;52.456;13.620;2024-03-29T11:43:38;99697.78;;;13.28;50.20
47967;BME280;33733;52.456;13.620;2024-03-29T11:46:10;99697.16;;;13.16;50.82
47967;BME280;33733;52.456;13.620;2024-03-29T11:48:37;99703.91;;;13.28;50.88
47967;BME280;33733;52.456;13.620;2024-03-29T11:51:06;99698.19;;;13.33;50.16
47967;BME280;33733;52.456;13.620;2024-03-29T11:53:34;99700.75;;;13.25;50.78
47967;BME280;33733;52.456;13.620;2024-03-29T11:56:02;99699.06;;;13.24;50.57
47967;BME280;33733;52.456;13.620;2024-03-29T11:58:31;99702.19;;;13.37;50.14
47967;BME280;33733;52.456;13.620;2024-03-29T12:00:58;99710.13;;;13.37;50.76
47967;BME280;33733;52.456;13.620;2024-03-29T12:03:26;99720.06;;;13.52;51.02
47967;BME280;33733;52.456;13.620;2024-03-29T12:05:54;99724.06;;;13.39;51.64
47967;BME280;33733;52.456;13.620;2024-03-29T12:08:29;99727.41;;;13.13;51.88
47967;BME280;33733;52.456;13.620;2024-03-29T12:10:57;99740.78;;;13.39;51.35
47967;BME280;33733;52.456;13.620;2024-03-29T12:13:24;99743.81;;;13.44;51.33
47967;BME280;33733;52.456;13.620;2024-03-29T12:15:50;99738.34;;;13.28;51.49
47967;BME280;33733;52.456;13.620;2024-03-29T12:18:22;99733.97;;;13.37;51.16
47967;BME280;33733;52.456;13.620;2024-03-29T12:20:50;99739.63;;;13.42;50.24
47967;BME280;33733;52.456;13.620;2024-03-29T12:23:18;99733.16;;;13.54;50.59
47967;BME280;33733;52.456;13.620;2024-03-29T12:25:45;99727.41;;;13.58;50.01
47967;BME280;33733;52.456;13.620;2024-03-29T12:28:13;99710.53;;;13.95;48.71
47967;BME280;33733;52.456;13.620;2024-03-29T12:30:41;99716.19;;;13.82;48.82
47967;BME280;33733;52.456;13.620;2024-03-29T12:33:16;99693.91;;;14.10;48.33
47967;BME280;33733;52.456;13.620;2024-03-29T12:35:43;99673.00;;;14.33;47.81
47967;BME280;33733;52.456;13.620;2024-03-29T12:38:14;99668.75;;;14.15;45.82
47967;BME280;33733;52.456;13.620;2024-03-29T12:40:42;99637.56;;;14.34;46.11
47967;BME280;33733;52.456;13.620;2024-03-29T12:43:10;99641.53;;;14.56;45.60
47967;BME280;33733;52.456;13.620;2024-03-29T12:45:39;99650.31;;;14.98;44.85
47967;BME280;33733;52.456;13.620;2024-03-29T12:48:13;99644.34;;;14.96;44.03
47967;BME280;33733;52.456;13.620;2024-03-29T12:50:41;99630.91;;;14.98;44.10
47967;BME280;33733;52.456;13.620;2024-03-29T12:53:09;99639.75;;;15.23;43.45
47967;BME280;33733;52.456;13.620;2024-03-29T12:55:36;99649.66;;;15.71;42.42
47967;BME280;33733;52.456;13.620;2024-03-29T12:58:05;99642.97;;;16.15;41.89
47967;BME280;33733;52.456;13.620;2024-03-29T13:00:35;99642.00;;;16.00;40.93
47967;BME280;33733;52.456;13.620;2024-03-29T13:03:03;99647.84;;;15.95;41.32
47967;BME280;33733;52.456;13.620;2024-03-29T13:05:29;99653.97;;;15.72;41.53